Aérodrome :
LOGIN :

S'inscrire | Disclaimer

   EN    FR    IT 

 










Légende :    VFR   VFR Marginal   IFR   IFR Intensif   IFR Très Intensif
Visi : 
Plafond : 
>= 8 km
>= 3000ft
5 à 8 km
1000 à 3000 ft
1500m à 5 km
500 à 1000 ft
800 à 1500m
200 à 500 ft
< 800m
< 200 ft
Symboles :   Orages  Brouillard  Fortes neiges  Fortes précipitations  Vent > 20 kt
SIGMETs :   Divers  Orages  Givrage  Turbulence  Onde Orograph.  Cendres Volcan.







- Altitude de l'aérodrome : 160 ft
- Code IATA : FMO


EDDG - Münster Osnabrück Int.

DERNIER METAR :
  • 231450Z 22007KT 140V260 CAVOK 22/05 Q1016 NOSIG

METARs EXPIRÉS :
  • 231420Z 22010KT 170V260 CAVOK 22/05 Q1016 NOSIG
  • 231350Z 23007KT 190V280 CAVOK 22/05 Q1017 NOSIG
  • 231320Z 19005KT 120V270 CAVOK 21/05 Q1017 NOSIG
  • 231250Z VRB05KT CAVOK 22/05 Q1017 NOSIG
  • 231220Z 26004KT 180V340 CAVOK 21/05 Q1017 NOSIG

TAF TAF EDDG
Valide du 23 à 12h jusqu'au 24 à 12h UTC


231100Z 2312/2412 24005KT CAVOK
BECMG 2318/2320 VRB03KT
BECMG 2408/2411 24008KT
Pas de NOTAMs connus pour ce terrain.



MET'MAP, la Météo Aéronautique d'un coup d'oeil ! - Copyright ORBIFLY Décembre 2007 - Disclaimer

ORBIFLY MET'MAP TEAM :

Programmation & Développement : Alexandra Zaïnal
Conception & Développement : Baudouin d'Aumeries
Co-Programmation & Développement : Marc-Olivier Méhu
Soutien technique & logistique : Manuel Goepfert

Contact : metmap@orbifly.com




SOURCES & CREDITS :

   NOAA